Gibraltar, Gibraltar
Current Conditions -  °F | °C
As of 1:50 AM on Wednesday 22 Oct 2014 (Local Time) from LXGB Reporting Station
Broken Clouds Broken Clouds  
Wind Chill: 66°   Ceiling: 100
Heat Index: 66°   Visibility: 0.09mi
Dew Point: 66°   Wind: 3mph
Humidity: 100%   Direction: 90°E
Pressure: 30.24"   Gusts: NA
Location:  36.14°N, 5.35°W
Report Text: LXGB 212350Z AUTO 09003KT 0150 // BKN001/// 19/19 Q1024
Loading
Personal Weather Stations






























Interactive Weather Map New forecast layout! Learn more

10-Day Weather Forecast

Advertisements
Track Severe Weather on mobile